createdAt,value
2019-04-30T00:00:42.566Z,305.05
2019-04-30T00:01:42.579Z,304.86
2019-04-30T00:02:42.543Z,305.36
2019-04-30T00:03:42.542Z,305.07
2019-04-30T00:04:42.513Z,304.77
2019-04-30T00:05:42.499Z,305.42
2019-04-30T00:06:42.507Z,304.62
2019-04-30T00:07:42.476Z,305.18
2019-04-30T00:08:42.476Z,304.95
2019-04-30T00:09:42.466Z,305.03
2019-04-30T00:10:42.447Z,304.94
2019-04-30T00:11:42.465Z,304.88
2019-04-30T00:12:42.425Z,305.09
2019-04-30T00:13:42.407Z,304.35
2019-04-30T00:14:42.424Z,304.78
2019-04-30T00:15:42.404Z,305.37
2019-04-30T00:16:42.388Z,305.04
2019-04-30T00:17:42.384Z,304.97
2019-04-30T00:18:54.851Z,304.63
2019-04-30T00:19:43.373Z,305.12
2019-04-30T00:20:44.744Z,305.07
2019-04-30T00:21:42.327Z,305.25
2019-04-30T00:22:47.182Z,304.76
2019-04-30T00:23:43.305Z,305.45
2019-04-30T00:24:46.787Z,304.98
2019-04-30T00:25:43.277Z,305.02
2019-04-30T00:26:45.394Z,304.57
2019-04-30T00:27:43.261Z,305.22
2019-04-30T00:28:46.246Z,305.16
2019-04-30T00:29:43.269Z,305.46
2019-04-30T00:30:44.009Z,304.92
2019-04-30T00:31:42.218Z,304.97
2019-04-30T00:32:43.759Z,305.22
2019-04-30T00:33:42.202Z,304.99
2019-04-30T00:34:42.210Z,305.08
2019-04-30T00:35:42.177Z,305.15
2019-04-30T00:36:42.156Z,304.92
2019-04-30T00:37:42.148Z,304.94
2019-04-30T00:38:42.134Z,304.87
2019-04-30T00:39:44.361Z,305.35
2019-04-30T00:40:44.689Z,305.10
2019-04-30T00:41:44.080Z,304.70
2019-04-30T00:42:43.104Z,305.22
2019-04-30T00:43:47.138Z,305.28
2019-04-30T00:44:43.101Z,304.84
2019-04-30T00:45:44.904Z,305.44
2019-04-30T00:46:43.053Z,305.09
2019-04-30T00:47:44.499Z,305.26
2019-04-30T00:48:43.027Z,304.94
2019-04-30T00:49:42.019Z,305.29
2019-04-30T00:50:42.020Z,304.96
2019-04-30T00:51:41.987Z,305.26
2019-04-30T00:52:41.996Z,305.39
2019-04-30T00:53:43.810Z,305.26
2019-04-30T00:54:42.964Z,305.67
2019-04-30T00:55:44.958Z,305.63
2019-04-30T00:56:42.935Z,304.88
2019-04-30T00:57:43.963Z,305.22
2019-04-30T00:58:41.907Z,305.05
2019-04-30T00:59:44.597Z,305.34
2019-04-30T01:00:42.919Z,305.09
2019-04-30T01:01:43.737Z,305.17
2019-04-30T01:02:42.871Z,305.44
2019-04-30T01:03:46.377Z,305.24
2019-04-30T01:04:44.870Z,304.70
2019-04-30T01:05:44.488Z,305.20
2019-04-30T01:06:42.831Z,305.32
2019-04-30T01:07:48.671Z,305.42
2019-04-30T01:08:42.804Z,304.55
2019-04-30T01:09:46.591Z,305.16
2019-04-30T01:10:42.799Z,305.30
2019-04-30T01:11:46.777Z,305.45
2019-04-30T01:12:47.321Z,304.79
2019-04-30T01:13:50.164Z,305.23
2019-04-30T01:14:42.745Z,305.22
2019-04-30T01:15:44.056Z,304.83
2019-04-30T01:16:42.715Z,305.45
2019-04-30T01:17:45.289Z,304.91
2019-04-30T01:18:42.706Z,305.23
2019-04-30T01:19:41.689Z,305.29
2019-04-30T01:20:41.688Z,305.00
2019-04-30T01:21:46.994Z,304.75
2019-04-30T01:22:42.655Z,305.53
2019-04-30T01:23:48.205Z,305.10
2019-04-30T01:24:42.636Z,304.99
2019-04-30T01:25:43.089Z,305.50
2019-04-30T01:26:42.613Z,305.01
2019-04-30T01:27:45.851Z,304.92
2019-04-30T01:28:42.586Z,305.61
2019-04-30T01:29:44.378Z,305.19
2019-04-30T01:30:41.593Z,304.99
2019-04-30T01:31:41.552Z,305.35
2019-04-30T01:32:41.551Z,305.09
2019-04-30T01:33:41.546Z,305.74
2019-04-30T01:34:44.135Z,305.38
2019-04-30T01:35:42.539Z,305.47
2019-04-30T01:36:43.484Z,305.12
2019-04-30T01:37:42.490Z,305.52
2019-04-30T01:38:44.840Z,305.04
2019-04-30T01:39:42.478Z,305.45
2019-04-30T01:40:42.807Z,305.33
2019-04-30T01:41:42.458Z,305.38
2019-04-30T01:42:48.022Z,305.35
2019-04-30T01:43:42.419Z,305.41
2019-04-30T01:44:43.479Z,304.87
2019-04-30T01:45:42.414Z,305.49
2019-04-30T01:46:43.270Z,305.01
2019-04-30T01:47:42.400Z,305.37
2019-04-30T01:48:43.725Z,305.32
2019-04-30T01:49:44.765Z,305.05
2019-04-30T01:50:42.148Z,305.15
2019-04-30T01:51:41.337Z,304.77
2019-04-30T01:52:41.336Z,305.37
2019-04-30T01:53:43.633Z,305.31
2019-04-30T01:54:41.303Z,305.42
2019-04-30T01:55:41.496Z,305.28
2019-04-30T01:56:41.313Z,305.17
2019-04-30T01:57:41.277Z,305.29
2019-04-30T01:58:41.267Z,305.16
2019-04-30T01:59:41.262Z,305.27
2019-04-30T02:00:41.245Z,305.53
2019-04-30T02:01:41.245Z,305.34
2019-04-30T02:02:41.220Z,304.73
2019-04-30T02:03:41.215Z,305.74
2019-04-30T02:04:41.203Z,305.30
2019-04-30T02:05:41.197Z,305.23
2019-04-30T02:06:41.182Z,304.81
2019-04-30T02:07:41.152Z,305.37
2019-04-30T02:08:41.160Z,305.19
2019-04-30T02:09:41.146Z,305.33
2019-04-30T02:10:41.131Z,305.52
2019-04-30T02:11:41.150Z,305.11
2019-04-30T02:12:41.099Z,305.94
2019-04-30T02:13:41.095Z,305.30
2019-04-30T02:14:41.073Z,305.22
2019-04-30T02:15:41.062Z,305.08
2019-04-30T02:16:41.097Z,305.32
2019-04-30T02:17:41.059Z,305.21
2019-04-30T02:18:41.052Z,305.57
2019-04-30T02:19:41.034Z,305.05
2019-04-30T02:20:41.015Z,305.38
2019-04-30T02:21:41.008Z,305.35
2019-04-30T02:22:41.029Z,304.96
2019-04-30T02:23:40.999Z,305.32
2019-04-30T02:24:40.976Z,305.08
2019-04-30T02:25:40.968Z,305.69
2019-04-30T02:26:40.955Z,305.28
2019-04-30T02:27:40.952Z,305.27
2019-04-30T02:28:40.940Z,305.28
2019-04-30T02:29:40.922Z,305.10
2019-04-30T02:30:40.915Z,305.72
2019-04-30T02:31:40.978Z,305.16
2019-04-30T02:32:40.884Z,305.13
2019-04-30T02:33:40.884Z,305.58
2019-04-30T02:34:44.042Z,305.17
2019-04-30T02:35:40.920Z,305.42
2019-04-30T02:36:40.836Z,305.23
2019-04-30T02:37:43.556Z,305.11
2019-04-30T02:38:40.836Z,305.38
2019-04-30T02:39:40.817Z,304.99
2019-04-30T02:40:42.528Z,305.36
2019-04-30T02:41:41.363Z,305.35
2019-04-30T02:42:40.804Z,305.21
2019-04-30T02:43:40.775Z,305.04
2019-04-30T02:44:40.821Z,305.55
2019-04-30T02:45:40.758Z,305.33
2019-04-30T02:46:40.794Z,305.58
2019-04-30T02:47:40.760Z,305.13
2019-04-30T02:48:40.718Z,305.00
2019-04-30T02:49:40.699Z,305.41
2019-04-30T02:50:40.678Z,305.42
2019-04-30T02:51:40.676Z,305.53
2019-04-30T02:52:40.690Z,305.41
2019-04-30T02:53:40.694Z,304.90
2019-04-30T02:54:40.645Z,305.32
2019-04-30T02:55:40.630Z,304.79
2019-04-30T02:56:40.639Z,304.78
2019-04-30T02:57:40.632Z,305.48
2019-04-30T02:58:41.055Z,305.09
2019-04-30T02:59:40.603Z,305.32
2019-04-30T03:00:40.576Z,305.27
2019-04-30T03:01:40.711Z,305.21
2019-04-30T03:02:40.581Z,305.23
2019-04-30T03:03:42.629Z,305.12
2019-04-30T03:04:40.552Z,305.46
2019-04-30T03:05:40.541Z,305.33
2019-04-30T03:06:40.714Z,305.42
2019-04-30T03:07:40.894Z,305.63
2019-04-30T03:08:40.541Z,304.90
2019-04-30T03:09:40.483Z,305.40
2019-04-30T03:10:40.475Z,305.44
2019-04-30T03:11:41.051Z,305.07
2019-04-30T03:12:40.855Z,305.30
2019-04-30T03:13:42.723Z,305.73
2019-04-30T03:14:40.428Z,305.58
2019-04-30T03:15:40.416Z,305.50
2019-04-30T03:16:40.418Z,305.35
2019-04-30T03:17:40.429Z,305.22
2019-04-30T03:18:40.400Z,305.45
2019-04-30T03:19:40.462Z,305.57
2019-04-30T03:20:40.359Z,305.42
2019-04-30T03:21:40.546Z,305.37
2019-04-30T03:22:40.340Z,304.94
2019-04-30T03:23:40.371Z,305.17
2019-04-30T03:24:42.860Z,305.34
2019-04-30T03:25:40.646Z,305.37
2019-04-30T03:26:40.593Z,305.65
2019-04-30T03:27:42.498Z,305.26
2019-04-30T03:28:40.309Z,305.25
2019-04-30T03:29:40.731Z,305.36
2019-04-30T03:30:41.974Z,305.18
2019-04-30T03:31:44.344Z,305.25
2019-04-30T03:32:43.040Z,305.35
2019-04-30T03:33:42.439Z,305.38
2019-04-30T03:34:41.947Z,305.00
2019-04-30T03:35:46.717Z,305.21
2019-04-30T03:36:41.203Z,305.38
2019-04-30T03:37:40.183Z,305.55
2019-04-30T03:38:42.731Z,305.32
2019-04-30T03:39:40.253Z,305.26
2019-04-30T03:40:40.579Z,305.31
2019-04-30T03:41:41.512Z,305.25
2019-04-30T03:42:40.123Z,305.46
2019-04-30T03:43:40.264Z,305.28
2019-04-30T03:44:40.354Z,305.66
2019-04-30T03:45:40.408Z,305.01
2019-04-30T03:46:40.554Z,305.27
2019-04-30T03:47:43.109Z,304.57
2019-04-30T03:48:40.072Z,306.09
2019-04-30T03:49:40.459Z,305.24
2019-04-30T03:50:50.409Z,305.28
2019-04-30T03:51:41.035Z,305.29
2019-04-30T03:52:40.013Z,305.31
2019-04-30T03:53:42.762Z,305.21
2019-04-30T03:54:40.878Z,305.23
2019-04-30T03:55:40.326Z,305.70
2019-04-30T03:56:39.996Z,305.77
2019-04-30T03:57:40.107Z,305.47
2019-04-30T03:58:39.963Z,305.97
2019-04-30T03:59:40.118Z,305.40
2019-04-30T04:00:42.425Z,305.47
2019-04-30T04:01:40.037Z,305.17
2019-04-30T04:02:40.698Z,305.34
2019-04-30T04:03:42.049Z,305.74
2019-04-30T04:04:39.915Z,305.35
2019-04-30T04:05:40.141Z,305.29
2019-04-30T04:06:39.864Z,305.32
2019-04-30T04:07:39.847Z,305.33
2019-04-30T04:08:43.224Z,305.29
2019-04-30T04:09:40.162Z,305.34
2019-04-30T04:10:40.444Z,305.44
2019-04-30T04:11:39.813Z,305.82
2019-04-30T04:12:39.799Z,305.45
2019-04-30T04:13:40.127Z,305.82
2019-04-30T04:14:39.813Z,305.62
2019-04-30T04:15:40.160Z,305.33
2019-04-30T04:16:41.115Z,305.11
2019-04-30T04:17:39.972Z,305.20
2019-04-30T04:18:40.319Z,305.54
2019-04-30T04:19:39.726Z,305.23
2019-04-30T04:20:42.931Z,305.52
2019-04-30T04:21:39.707Z,305.53
2019-04-30T04:22:40.307Z,306.13
2019-04-30T04:23:40.061Z,305.06
2019-04-30T04:24:40.291Z,305.41
2019-04-30T04:25:40.048Z,305.73
2019-04-30T04:26:43.382Z,306.09
2019-04-30T04:27:39.648Z,305.31
2019-04-30T04:28:43.162Z,305.73
2019-04-30T04:29:40.345Z,306.07
2019-04-30T04:30:42.847Z,306.26
2019-04-30T04:31:39.614Z,305.89
2019-04-30T04:32:40.711Z,306.19
2019-04-30T04:33:39.719Z,306.10
2019-04-30T04:34:40.285Z,305.38
2019-04-30T04:35:39.601Z,306.28
2019-04-30T04:36:43.326Z,305.57
2019-04-30T04:37:39.676Z,305.88
2019-04-30T04:38:40.331Z,305.46
2019-04-30T04:39:42.084Z,306.52
2019-04-30T04:40:40.066Z,306.01
2019-04-30T04:41:39.994Z,306.16
2019-04-30T04:42:39.768Z,306.23
2019-04-30T04:43:40.190Z,306.11
2019-04-30T04:44:40.041Z,305.87
2019-04-30T04:45:40.495Z,305.92
2019-04-30T04:46:40.174Z,306.13
2019-04-30T04:47:40.232Z,306.21
2019-04-30T04:48:39.601Z,306.23
2019-04-30T04:49:39.820Z,305.88
2019-04-30T04:50:39.988Z,306.34
2019-04-30T04:51:42.325Z,305.75
2019-04-30T04:52:39.694Z,306.07
2019-04-30T04:53:40.225Z,306.13
2019-04-30T04:54:39.975Z,306.52
2019-04-30T04:55:40.015Z,306.12
2019-04-30T04:56:39.961Z,305.78
2019-04-30T04:57:40.026Z,306.03
2019-04-30T04:58:40.157Z,306.38
2019-04-30T04:59:42.353Z,306.08
2019-04-30T05:00:39.299Z,306.37
2019-04-30T05:01:39.274Z,306.20
2019-04-30T05:02:39.746Z,306.46
2019-04-30T05:03:39.867Z,306.49
2019-04-30T05:04:40.084Z,305.63
2019-04-30T05:05:39.889Z,306.44
2019-04-30T05:06:39.572Z,306.09
2019-04-30T05:07:39.958Z,306.23
2019-04-30T05:08:39.688Z,306.40
2019-04-30T05:09:39.706Z,306.39
2019-04-30T05:10:39.280Z,306.56
2019-04-30T05:11:39.547Z,306.48
2019-04-30T05:12:39.866Z,305.89
2019-04-30T05:13:39.140Z,306.24
2019-04-30T05:14:39.122Z,306.67
2019-04-30T05:15:39.116Z,306.05
2019-04-30T05:16:39.130Z,306.25
2019-04-30T05:17:39.871Z,306.03
2019-04-30T05:18:39.222Z,306.06
2019-04-30T05:19:39.073Z,306.24
2019-04-30T05:20:41.285Z,306.41
2019-04-30T05:21:42.709Z,306.27
2019-04-30T05:22:40.061Z,306.22
2019-04-30T05:23:41.076Z,306.43
2019-04-30T05:24:40.849Z,306.29
2019-04-30T05:25:39.095Z,306.12
2019-04-30T05:26:38.999Z,306.16
2019-04-30T05:27:39.352Z,306.17
2019-04-30T05:28:39.424Z,306.41
2019-04-30T05:29:38.949Z,305.75
2019-04-30T05:30:39.344Z,306.52
2019-04-30T05:31:38.961Z,306.04
2019-04-30T05:32:39.190Z,306.22
2019-04-30T05:33:39.140Z,306.28
2019-04-30T05:34:38.902Z,306.62
2019-04-30T05:35:38.996Z,306.36
2019-04-30T05:36:39.259Z,306.58
2019-04-30T05:37:38.880Z,306.41
2019-04-30T05:38:39.286Z,306.46
2019-04-30T05:39:39.107Z,306.74
2019-04-30T05:40:39.846Z,305.70
2019-04-30T05:41:41.173Z,305.98
2019-04-30T05:42:38.911Z,306.36
2019-04-30T05:43:38.804Z,306.48
2019-04-30T05:44:39.581Z,306.43
2019-04-30T05:45:39.071Z,306.65
2019-04-30T05:46:39.757Z,306.48
2019-04-30T05:47:39.040Z,306.75
2019-04-30T05:48:39.699Z,306.91
2019-04-30T05:49:38.949Z,307.28
2019-04-30T05:50:39.095Z,306.93
2019-04-30T05:51:38.907Z,306.95
2019-04-30T05:52:39.753Z,307.39
2019-04-30T05:53:39.365Z,306.89
2019-04-30T05:54:39.124Z,307.07
2019-04-30T05:55:39.531Z,307.17
2019-04-30T05:56:39.888Z,306.97
2019-04-30T05:57:52.430Z,306.80
2019-04-30T05:58:39.919Z,306.95
2019-04-30T05:59:38.850Z,306.99
2019-04-30T06:00:40.030Z,307.49
2019-04-30T06:01:39.511Z,306.46
2019-04-30T06:02:39.937Z,307.40
2019-04-30T06:03:38.696Z,306.89
2019-04-30T06:04:38.793Z,307.41
2019-04-30T06:05:39.428Z,307.38
2019-04-30T06:06:38.965Z,307.60
2019-04-30T06:07:39.482Z,307.46
2019-04-30T06:08:39.285Z,307.24
2019-04-30T06:09:38.640Z,307.49
2019-04-30T06:10:39.619Z,307.60
2019-04-30T06:11:39.316Z,306.98
2019-04-30T06:12:39.288Z,306.78
2019-04-30T06:13:40.351Z,307.60
2019-04-30T06:14:48.649Z,307.32
2019-04-30T06:15:39.441Z,307.16
2019-04-30T06:16:39.335Z,306.96
2019-04-30T06:17:39.128Z,306.18
2019-04-30T06:18:38.612Z,306.25
2019-04-30T06:19:39.191Z,306.59
2019-04-30T06:20:38.669Z,306.71
2019-04-30T06:21:39.108Z,306.43
2019-04-30T06:22:38.633Z,305.97
2019-04-30T06:23:39.372Z,306.23
2019-04-30T06:24:39.545Z,306.06
2019-04-30T06:25:55.540Z,306.48
2019-04-30T06:26:39.414Z,306.06
2019-04-30T06:27:38.693Z,305.99
2019-04-30T06:28:39.047Z,305.61
2019-04-30T06:29:39.080Z,305.67
2019-04-30T06:30:39.640Z,305.72
2019-04-30T06:31:40.395Z,306.29
2019-04-30T06:32:39.491Z,306.26
2019-04-30T06:33:38.865Z,306.09
2019-04-30T06:34:41.622Z,306.39
2019-04-30T06:35:39.134Z,305.96
2019-04-30T06:36:41.968Z,305.53
2019-04-30T06:37:39.220Z,305.53
2019-04-30T06:38:38.667Z,305.77
2019-04-30T06:39:38.607Z,305.84
2019-04-30T06:40:39.113Z,305.67
2019-04-30T06:41:40.811Z,305.23
2019-04-30T06:42:39.280Z,305.72
2019-04-30T06:43:38.689Z,305.17
2019-04-30T06:44:41.642Z,305.74
2019-04-30T06:45:38.818Z,305.68
2019-04-30T06:46:38.723Z,306.13
2019-04-30T06:47:38.929Z,305.15
2019-04-30T06:48:39.232Z,305.85
2019-04-30T06:49:39.233Z,305.67
2019-04-30T06:50:39.306Z,304.98
2019-04-30T06:51:38.955Z,305.33
2019-04-30T06:52:39.044Z,306.06
2019-04-30T06:53:39.162Z,305.84
2019-04-30T06:54:39.682Z,305.78
2019-04-30T06:55:39.237Z,306.00
2019-04-30T06:56:38.726Z,306.29
2019-04-30T06:57:38.433Z,306.05
2019-04-30T06:58:38.830Z,305.86
2019-04-30T06:59:39.537Z,306.11
2019-04-30T07:00:39.962Z,305.80
2019-04-30T07:01:38.865Z,305.72
2019-04-30T07:02:39.306Z,306.13
2019-04-30T07:03:38.839Z,305.65
2019-04-30T07:04:40.001Z,305.48
2019-04-30T07:05:38.952Z,305.79
2019-04-30T07:06:43.893Z,306.18
2019-04-30T07:07:41.574Z,305.33
2019-04-30T07:08:42.457Z,305.42
2019-04-30T07:09:51.479Z,305.74
2019-04-30T07:10:40.358Z,305.35
2019-04-30T07:11:39.236Z,304.95
2019-04-30T07:12:38.988Z,304.67
2019-04-30T07:13:39.500Z,305.32
2019-04-30T07:14:41.400Z,305.10
2019-04-30T07:15:39.426Z,305.52
2019-04-30T07:16:39.625Z,304.89
2019-04-30T07:17:40.554Z,304.98
2019-04-30T07:18:38.763Z,304.32
2019-04-30T07:19:51.109Z,304.42
2019-04-30T07:20:38.841Z,304.46
2019-04-30T07:21:42.885Z,304.92
2019-04-30T07:22:45.474Z,305.32
2019-04-30T07:23:38.841Z,304.57
2019-04-30T07:24:39.401Z,305.03
2019-04-30T07:25:39.128Z,305.15
2019-04-30T07:26:38.905Z,305.33
2019-04-30T07:27:39.938Z,304.77
2019-04-30T07:28:44.763Z,304.92
2019-04-30T07:29:39.296Z,304.85
2019-04-30T07:30:39.466Z,305.06
2019-04-30T07:31:39.261Z,305.24
2019-04-30T07:32:38.729Z,304.99
2019-04-30T07:33:39.478Z,304.81
2019-04-30T07:34:39.510Z,304.56
2019-04-30T07:35:39.762Z,304.85
2019-04-30T07:36:48.438Z,304.68
2019-04-30T07:37:39.170Z,304.31
2019-04-30T07:38:45.692Z,305.14
2019-04-30T07:39:39.100Z,305.21
2019-04-30T07:40:39.014Z,305.03
2019-04-30T07:41:37.543Z,305.16
2019-04-30T07:42:44.445Z,305.18
2019-04-30T07:43:39.248Z,305.16
2019-04-30T07:44:39.395Z,304.97
2019-04-30T07:45:39.293Z,305.44
2019-04-30T07:46:41.073Z,304.51
2019-04-30T07:47:39.535Z,304.96
2019-04-30T07:48:39.969Z,304.28
2019-04-30T07:49:49.774Z,304.41
2019-04-30T07:50:41.120Z,304.72
2019-04-30T07:51:40.819Z,304.55
2019-04-30T07:52:55.388Z,304.62
2019-04-30T07:53:40.375Z,304.78
2019-04-30T07:54:39.549Z,304.49
2019-04-30T07:55:39.288Z,303.91
2019-04-30T07:56:40.303Z,304.47
2019-04-30T07:57:40.138Z,304.62
2019-04-30T07:58:39.098Z,304.25
2019-04-30T07:59:39.525Z,304.30
2019-04-30T08:00:40.083Z,304.11
2019-04-30T08:01:37.292Z,304.00
2019-04-30T08:02:41.528Z,303.81
2019-04-30T08:03:39.583Z,304.88
2019-04-30T08:04:37.302Z,303.90
2019-04-30T08:05:40.010Z,303.72
2019-04-30T08:06:37.251Z,304.03
2019-04-30T08:07:39.080Z,303.79
2019-04-30T08:08:37.262Z,303.43
2019-04-30T08:09:41.563Z,303.66
2019-04-30T08:10:39.371Z,303.84
2019-04-30T08:11:41.895Z,303.55
2019-04-30T08:12:42.407Z,303.68
2019-04-30T08:13:40.734Z,304.00
2019-04-30T08:14:38.974Z,303.84
2019-04-30T08:15:37.139Z,303.21
2019-04-30T08:16:38.644Z,303.42
2019-04-30T08:17:38.863Z,303.27
2019-04-30T08:18:39.129Z,303.75
2019-04-30T08:19:38.493Z,303.60
2019-04-30T08:20:39.205Z,303.38
2019-04-30T08:21:38.732Z,303.82
2019-04-30T08:22:37.088Z,303.63
2019-04-30T08:23:37.761Z,303.10
2019-04-30T08:24:38.982Z,303.52
2019-04-30T08:25:38.996Z,304.38
2019-04-30T08:26:37.066Z,303.15
2019-04-30T08:27:39.139Z,304.17
2019-04-30T08:28:38.643Z,303.85
2019-04-30T08:29:37.004Z,304.00
2019-04-30T08:30:39.011Z,303.63
2019-04-30T08:31:40.644Z,303.92
2019-04-30T08:32:38.693Z,302.45
2019-04-30T08:33:36.967Z,303.19
2019-04-30T08:34:39.228Z,302.25
2019-04-30T08:35:36.950Z,301.17
2019-04-30T08:36:38.684Z,301.73
2019-04-30T08:37:38.555Z,301.21
2019-04-30T08:38:36.938Z,302.32
2019-04-30T08:39:36.934Z,301.17
2019-04-30T08:40:36.903Z,302.38
2019-04-30T08:41:36.889Z,302.05
2019-04-30T08:42:38.436Z,301.42
2019-04-30T08:43:36.872Z,302.16
2019-04-30T08:44:36.877Z,302.22
2019-04-30T08:45:38.586Z,302.31
2019-04-30T08:46:38.674Z,301.75
2019-04-30T08:47:39.121Z,302.48
2019-04-30T08:48:49.481Z,302.05
2019-04-30T08:49:39.971Z,301.79
2019-04-30T08:50:36.827Z,302.68
2019-04-30T08:51:38.618Z,302.33
2019-04-30T08:52:36.786Z,301.91
2019-04-30T08:53:38.630Z,301.62
2019-04-30T08:54:36.756Z,302.23
2019-04-30T08:55:36.742Z,301.28
2019-04-30T08:56:38.704Z,301.86
2019-04-30T08:57:36.721Z,301.40
2019-04-30T08:58:38.953Z,300.93
2019-04-30T08:59:36.702Z,300.99
2019-04-30T09:00:38.443Z,301.09
2019-04-30T09:01:38.593Z,301.27
2019-04-30T09:02:36.684Z,302.00
2019-04-30T09:03:36.694Z,301.17
2019-04-30T09:04:36.645Z,300.79
2019-04-30T09:05:38.533Z,301.07
2019-04-30T09:06:38.682Z,301.20
2019-04-30T09:07:38.660Z,301.16
2019-04-30T09:08:36.618Z,301.22
2019-04-30T09:09:36.647Z,300.77
2019-04-30T09:10:36.595Z,300.54
2019-04-30T09:11:50.039Z,300.40
2019-04-30T09:12:37.570Z,301.64
2019-04-30T09:13:36.554Z,301.65
2019-04-30T09:14:36.550Z,301.01
2019-04-30T09:15:36.558Z,300.83
2019-04-30T09:16:36.587Z,301.18
2019-04-30T09:17:38.539Z,300.82
2019-04-30T09:18:36.525Z,301.21
2019-04-30T09:19:38.575Z,301.72
2019-04-30T09:20:36.501Z,300.43
2019-04-30T09:21:38.592Z,300.97
2019-04-30T09:22:36.478Z,300.73
2019-04-30T09:23:47.387Z,301.11
2019-04-30T09:24:39.162Z,300.82
2019-04-30T09:25:36.463Z,299.96
2019-04-30T09:26:36.434Z,301.26
2019-04-30T09:27:36.439Z,301.48
2019-04-30T09:28:36.427Z,300.79
2019-04-30T09:29:36.432Z,301.00
2019-04-30T09:30:38.559Z,300.52
2019-04-30T09:31:36.404Z,301.25
2019-04-30T09:32:36.378Z,299.88
2019-04-30T09:33:36.364Z,300.34
2019-04-30T09:34:36.394Z,300.81
2019-04-30T09:35:36.352Z,300.65
2019-04-30T09:36:36.330Z,300.63
2019-04-30T09:37:36.331Z,300.68
2019-04-30T09:38:36.314Z,300.71
2019-04-30T09:39:36.318Z,300.26
2019-04-30T09:40:36.349Z,299.72
2019-04-30T09:41:36.298Z,299.18
2019-04-30T09:42:36.286Z,299.51
2019-04-30T09:43:36.278Z,299.40
2019-04-30T09:44:36.262Z,298.43
2019-04-30T09:45:36.270Z,300.04
2019-04-30T09:46:36.243Z,299.58
2019-04-30T09:47:36.228Z,299.05
2019-04-30T09:48:36.227Z,299.71
2019-04-30T09:49:36.221Z,298.95
2019-04-30T09:50:36.476Z,299.01
2019-04-30T09:51:36.211Z,298.76
2019-04-30T09:52:37.371Z,298.45
2019-04-30T09:53:36.188Z,298.73
2019-04-30T09:54:36.349Z,298.04
2019-04-30T09:55:36.162Z,298.47
2019-04-30T09:56:36.170Z,299.20
2019-04-30T09:57:36.137Z,299.23
2019-04-30T09:58:36.123Z,298.03
2019-04-30T09:59:36.118Z,298.19
2019-04-30T10:00:36.113Z,297.85
2019-04-30T10:01:36.140Z,298.01
2019-04-30T10:02:36.098Z,297.93
2019-04-30T10:03:36.949Z,299.03
2019-04-30T10:04:36.518Z,298.12
2019-04-30T10:05:36.060Z,298.48
2019-04-30T10:06:40.036Z,299.07
2019-04-30T10:07:36.107Z,298.92
2019-04-30T10:08:46.130Z,298.36
2019-04-30T10:09:37.030Z,297.72
2019-04-30T10:10:36.011Z,297.66
2019-04-30T10:11:36.020Z,298.36
2019-04-30T10:12:36.001Z,298.65
2019-04-30T10:13:36.003Z,298.07
2019-04-30T10:14:35.989Z,298.39
2019-04-30T10:15:35.972Z,297.87
2019-04-30T10:16:35.970Z,298.23
2019-04-30T10:17:35.939Z,298.04
2019-04-30T10:18:35.939Z,297.83
2019-04-30T10:19:35.920Z,298.41
2019-04-30T10:20:35.920Z,298.27
2019-04-30T10:21:35.930Z,298.47
2019-04-30T10:22:35.895Z,297.89
2019-04-30T10:23:35.882Z,297.90
2019-04-30T10:24:35.880Z,298.87
2019-04-30T10:25:35.876Z,298.29
2019-04-30T10:26:35.895Z,298.49
2019-04-30T10:27:35.851Z,297.79
2019-04-30T10:28:35.853Z,297.52
2019-04-30T10:29:35.833Z,298.32
2019-04-30T10:30:35.810Z,298.47
2019-04-30T10:31:35.811Z,298.32
2019-04-30T10:32:35.841Z,297.90
2019-04-30T10:33:35.792Z,298.17
2019-04-30T10:34:35.803Z,298.30
2019-04-30T10:35:35.785Z,298.66
2019-04-30T10:36:35.755Z,297.78
2019-04-30T10:37:35.743Z,298.40
2019-04-30T10:38:35.760Z,298.50
2019-04-30T10:39:35.757Z,297.63
2019-04-30T10:40:35.716Z,298.79
2019-04-30T10:41:35.709Z,298.14
2019-04-30T10:42:35.699Z,298.98
2019-04-30T10:43:35.707Z,299.31
2019-04-30T10:44:35.686Z,298.88
2019-04-30T10:45:35.700Z,298.86
2019-04-30T10:46:35.679Z,298.89
2019-04-30T10:47:35.685Z,299.10
2019-04-30T10:48:35.643Z,299.21
2019-04-30T10:55:35.612Z,298.93
2019-04-30T10:56:35.567Z,298.59
2019-04-30T10:57:35.555Z,298.67
2019-04-30T10:58:35.557Z,298.24
2019-04-30T10:59:35.540Z,298.97
2019-04-30T11:00:35.540Z,298.45
2019-04-30T11:01:35.547Z,298.78
2019-04-30T11:02:35.531Z,299.10
2019-04-30T11:03:35.501Z,299.15
2019-04-30T11:04:35.505Z,298.92
2019-04-30T11:05:35.509Z,298.53
2019-04-30T11:06:35.485Z,298.83
2019-04-30T11:07:35.505Z,298.98
2019-04-30T11:08:35.458Z,299.28
2019-04-30T11:09:35.446Z,297.96
2019-04-30T11:10:35.447Z,298.81
2019-04-30T11:11:35.440Z,299.08
2019-04-30T11:12:35.429Z,298.37
2019-04-30T11:13:35.430Z,298.40
2019-04-30T11:14:35.399Z,298.49
2019-04-30T11:15:35.396Z,297.39
2019-04-30T11:16:35.419Z,298.06
2019-04-30T11:17:35.642Z,298.26
2019-04-30T11:18:35.552Z,297.51
2019-04-30T11:19:35.433Z,297.78
2019-04-30T11:20:35.488Z,297.42
2019-04-30T11:21:35.552Z,297.49
2019-04-30T11:22:35.506Z,298.14
2019-04-30T11:23:35.443Z,297.69
2019-04-30T11:24:38.059Z,298.40
2019-04-30T11:25:37.143Z,297.94
2019-04-30T11:26:35.738Z,297.99
2019-04-30T11:27:35.909Z,297.92
2019-04-30T11:28:35.492Z,297.83
2019-04-30T11:29:35.432Z,297.54
2019-04-30T11:30:35.428Z,297.59
2019-04-30T11:31:35.418Z,297.64
2019-04-30T11:32:35.445Z,297.16
2019-04-30T11:33:35.383Z,297.45
2019-04-30T11:34:35.221Z,296.96
2019-04-30T11:35:35.240Z,296.90
2019-04-30T11:36:35.208Z,297.13
2019-04-30T11:37:35.214Z,295.78
2019-04-30T11:38:35.198Z,295.88
2019-04-30T11:39:35.181Z,295.30
2019-04-30T11:40:39.288Z,295.23
2019-04-30T11:41:35.191Z,295.32
2019-04-30T11:42:35.175Z,294.97
2019-04-30T11:43:35.159Z,295.21
2019-04-30T11:44:35.129Z,296.53
2019-04-30T11:45:35.135Z,296.31
2019-04-30T11:46:35.151Z,295.54
2019-04-30T11:47:35.104Z,295.98
2019-04-30T11:48:35.107Z,296.37
2019-04-30T11:49:35.106Z,296.11
2019-04-30T11:50:35.092Z,295.92
2019-04-30T11:51:35.096Z,296.67
2019-04-30T11:52:35.089Z,296.53
2019-04-30T11:53:35.051Z,296.61
2019-04-30T11:54:35.043Z,296.99
2019-04-30T11:55:35.047Z,296.89
2019-04-30T11:56:35.038Z,296.22
2019-04-30T11:57:35.028Z,296.48
2019-04-30T11:58:35.030Z,296.66
2019-04-30T11:59:34.999Z,296.92
2019-04-30T12:00:35.003Z,296.58
2019-04-30T12:01:34.989Z,296.73
2019-04-30T12:02:34.990Z,296.21
2019-04-30T12:03:34.997Z,296.85
2019-04-30T12:04:34.950Z,296.16
2019-04-30T12:05:34.941Z,295.85
2019-04-30T12:06:34.931Z,296.06
2019-04-30T12:07:34.926Z,296.31
2019-04-30T12:08:34.956Z,296.09
2019-04-30T12:09:34.909Z,295.20
2019-04-30T12:10:34.905Z,296.54
2019-04-30T12:11:34.908Z,295.10
2019-04-30T12:12:34.877Z,294.99
2019-04-30T12:13:34.895Z,295.17
2019-04-30T12:14:34.873Z,295.60
2019-04-30T12:15:34.869Z,295.36
2019-04-30T12:16:34.852Z,295.10
2019-04-30T12:17:34.841Z,295.24
2019-04-30T12:18:34.853Z,295.10
2019-04-30T12:19:34.825Z,294.84
2019-04-30T12:20:34.819Z,294.83
2019-04-30T12:21:34.811Z,294.16
2019-04-30T12:22:34.786Z,294.06
2019-04-30T12:23:34.806Z,294.95
2019-04-30T12:24:34.788Z,293.50
2019-04-30T12:25:34.763Z,294.10
2019-04-30T12:26:34.743Z,293.65
2019-04-30T12:27:34.734Z,293.90
2019-04-30T12:28:34.737Z,293.61
2019-04-30T12:29:34.741Z,293.76
2019-04-30T12:30:34.709Z,293.22
2019-04-30T12:31:34.694Z,293.26
2019-04-30T12:32:35.276Z,294.02
2019-04-30T12:33:34.702Z,293.44
2019-04-30T12:34:34.680Z,293.73